createdAt,value
2023-03-29T00:00:37.646Z,5.09
2023-03-29T00:01:37.627Z,5.09
2023-03-29T00:02:37.706Z,5.05
2023-03-29T00:03:37.694Z,5.04
2023-03-29T00:04:37.615Z,5.01
2023-03-29T00:05:37.599Z,4.98
2023-03-29T00:06:37.584Z,4.96
2023-03-29T00:07:37.558Z,4.94
2023-03-29T00:08:37.542Z,4.91
2023-03-29T00:09:37.531Z,4.91
2023-03-29T00:10:37.561Z,4.91
2023-03-29T00:11:37.522Z,4.91
2023-03-29T00:12:37.525Z,4.92
2023-03-29T00:13:37.482Z,4.91
2023-03-29T00:14:37.473Z,4.94
2023-03-29T00:15:37.484Z,4.88
2023-03-29T00:16:37.499Z,4.89
2023-03-29T00:17:37.483Z,4.91
2023-03-29T00:18:37.436Z,4.86
2023-03-29T00:19:37.451Z,4.86
2023-03-29T00:20:37.435Z,4.83
2023-03-29T00:21:37.426Z,4.80
2023-03-29T00:22:37.420Z,4.83
2023-03-29T00:23:37.381Z,4.80
2023-03-29T00:24:37.384Z,4.83
2023-03-29T00:25:37.392Z,4.80
2023-03-29T00:26:37.352Z,4.80
2023-03-29T00:27:37.358Z,4.77
2023-03-29T00:28:37.338Z,4.79
2023-03-29T00:29:37.347Z,4.80
2023-03-29T00:30:37.355Z,4.79
2023-03-29T00:31:37.324Z,4.77
2023-03-29T00:32:37.377Z,4.79
2023-03-29T00:33:37.272Z,4.79
2023-03-29T00:34:37.284Z,4.77
2023-03-29T00:35:37.311Z,4.79
2023-03-29T00:36:37.248Z,4.77
2023-03-29T00:37:37.246Z,4.77
2023-03-29T00:38:37.252Z,4.79
2023-03-29T00:39:37.223Z,4.83
2023-03-29T00:40:37.241Z,4.79
2023-03-29T00:41:37.188Z,4.79
2023-03-29T00:42:37.196Z,4.79
2023-03-29T00:43:37.207Z,4.77
2023-03-29T00:44:37.165Z,4.79
2023-03-29T00:45:37.163Z,4.77
2023-03-29T00:46:37.195Z,4.77
2023-03-29T00:47:37.207Z,4.76
2023-03-29T00:48:37.142Z,4.75
2023-03-29T00:49:37.124Z,4.76
2023-03-29T00:50:37.125Z,4.77
2023-03-29T00:51:37.111Z,4.76
2023-03-29T00:52:37.097Z,4.73
2023-03-29T00:53:37.085Z,4.75
2023-03-29T00:54:37.064Z,4.76
2023-03-29T00:55:37.068Z,4.79
2023-03-29T00:56:37.302Z,4.84
2023-03-29T00:57:37.033Z,4.84
2023-03-29T00:58:37.030Z,4.84
2023-03-29T00:59:37.014Z,4.84
2023-03-29T01:00:37.006Z,4.83
2023-03-29T01:01:37.061Z,4.79
2023-03-29T01:02:37.054Z,4.79
2023-03-29T01:03:37.049Z,4.79
2023-03-29T01:04:36.961Z,4.79
2023-03-29T01:05:36.980Z,4.77
2023-03-29T01:06:36.967Z,4.75
2023-03-29T01:07:36.950Z,4.76
2023-03-29T01:08:36.932Z,4.77
2023-03-29T01:09:36.924Z,4.80
2023-03-29T01:10:36.960Z,4.84
2023-03-29T01:11:36.896Z,4.84
2023-03-29T01:12:36.886Z,4.83
2023-03-29T01:13:36.999Z,4.83
2023-03-29T01:14:36.853Z,4.84
2023-03-29T01:15:36.885Z,4.84
2023-03-29T01:16:36.875Z,4.83
2023-03-29T01:17:36.857Z,4.79
2023-03-29T01:18:36.808Z,4.79
2023-03-29T01:19:36.811Z,4.76
2023-03-29T01:20:36.821Z,4.76
2023-03-29T01:21:36.786Z,4.75
2023-03-29T01:22:36.804Z,4.76
2023-03-29T01:23:36.792Z,4.73
2023-03-29T01:24:36.752Z,4.73
2023-03-29T01:25:36.758Z,4.73
2023-03-29T01:26:36.779Z,4.73
2023-03-29T01:27:36.742Z,4.75
2023-03-29T01:28:36.718Z,4.76
2023-03-29T01:29:36.712Z,4.73
2023-03-29T01:30:36.715Z,4.77
2023-03-29T01:31:36.786Z,4.77
2023-03-29T01:32:36.678Z,4.73
2023-03-29T01:33:36.669Z,4.73
2023-03-29T01:34:36.654Z,4.75
2023-03-29T01:35:36.691Z,4.72
2023-03-29T01:36:36.622Z,4.70
2023-03-29T01:37:36.645Z,4.67
2023-03-29T01:38:36.610Z,4.65
2023-03-29T01:39:36.618Z,4.65
2023-03-29T01:40:36.617Z,4.64
2023-03-29T01:41:36.590Z,4.62
2023-03-29T01:42:36.587Z,4.64
2023-03-29T01:43:36.571Z,4.62
2023-03-29T01:44:36.551Z,4.65
2023-03-29T01:45:36.554Z,4.65
2023-03-29T01:46:36.553Z,4.64
2023-03-29T01:47:36.568Z,4.65
2023-03-29T01:48:36.549Z,4.67
2023-03-29T01:49:36.504Z,4.67
2023-03-29T01:50:36.513Z,4.65
2023-03-29T01:51:36.472Z,4.67
2023-03-29T01:52:36.472Z,4.67
2023-03-29T01:53:36.484Z,4.69
2023-03-29T01:54:36.439Z,4.67
2023-03-29T01:55:36.442Z,4.69
2023-03-29T01:56:36.435Z,4.65
2023-03-29T01:57:36.419Z,4.69
2023-03-29T01:58:36.395Z,4.69
2023-03-29T01:59:36.424Z,4.73
2023-03-29T02:00:36.562Z,4.72
2023-03-29T02:01:36.466Z,4.69
2023-03-29T02:02:36.445Z,4.72
2023-03-29T02:03:36.370Z,4.72
2023-03-29T02:04:36.350Z,4.72
2023-03-29T02:05:36.355Z,4.75
2023-03-29T02:06:36.333Z,4.75
2023-03-29T02:07:36.333Z,4.73
2023-03-29T02:08:36.291Z,4.73
2023-03-29T02:09:36.287Z,4.73
2023-03-29T02:10:36.309Z,4.72
2023-03-29T02:11:36.296Z,4.73
2023-03-29T02:12:36.304Z,4.76
2023-03-29T02:13:36.266Z,4.73
2023-03-29T02:14:36.249Z,4.73
2023-03-29T02:15:36.279Z,4.72
2023-03-29T02:16:36.217Z,4.75
2023-03-29T02:17:36.277Z,4.76
2023-03-29T02:18:36.207Z,4.76
2023-03-29T02:19:36.193Z,4.76
2023-03-29T02:20:36.196Z,4.75
2023-03-29T02:21:36.185Z,4.75
2023-03-29T02:22:36.187Z,4.77
2023-03-29T02:23:36.196Z,4.80
2023-03-29T02:24:36.153Z,4.84
2023-03-29T02:25:36.173Z,4.86
2023-03-29T02:26:36.175Z,4.91
2023-03-29T02:27:36.104Z,4.88
2023-03-29T02:28:36.129Z,4.92
2023-03-29T02:29:36.107Z,4.95
2023-03-29T02:30:36.079Z,4.99
2023-03-29T02:31:36.201Z,5.01
2023-03-29T02:32:36.103Z,5.02
2023-03-29T02:33:36.071Z,5.05
2023-03-29T02:34:36.092Z,5.12
2023-03-29T02:35:36.101Z,5.13
2023-03-29T02:36:36.035Z,5.16
2023-03-29T02:37:36.023Z,5.16
2023-03-29T02:38:35.985Z,5.20
2023-03-29T02:39:36.035Z,5.22
2023-03-29T02:40:36.013Z,5.22
2023-03-29T02:41:35.979Z,5.25
2023-03-29T02:42:35.979Z,5.30
2023-03-29T02:43:35.982Z,5.34
2023-03-29T02:44:35.962Z,5.37
2023-03-29T02:45:35.971Z,5.38
2023-03-29T02:46:35.938Z,5.40
2023-03-29T02:47:35.974Z,5.37
2023-03-29T02:48:35.897Z,5.37
2023-03-29T02:49:35.892Z,5.35
2023-03-29T02:50:35.899Z,5.37
2023-03-29T02:51:35.880Z,5.37
2023-03-29T02:52:35.876Z,5.37
2023-03-29T02:53:35.892Z,5.38
2023-03-29T02:54:35.840Z,5.35
2023-03-29T02:55:35.891Z,5.38
2023-03-29T02:56:35.819Z,5.40
2023-03-29T02:57:35.967Z,5.43
2023-03-29T02:58:35.804Z,5.41
2023-03-29T02:59:35.851Z,5.43
2023-03-29T03:00:35.811Z,5.43
2023-03-29T03:01:35.805Z,5.41
2023-03-29T03:02:35.839Z,5.40
2023-03-29T03:03:36.079Z,5.43
2023-03-29T03:04:35.833Z,5.43
2023-03-29T03:05:35.771Z,5.45
2023-03-29T03:06:35.736Z,5.45
2023-03-29T03:07:35.725Z,5.46
2023-03-29T03:08:35.704Z,5.49
2023-03-29T03:09:35.688Z,5.49
2023-03-29T03:10:35.711Z,5.55
2023-03-29T03:11:35.713Z,5.60
2023-03-29T03:12:35.680Z,5.63
2023-03-29T03:13:35.658Z,5.67
2023-03-29T03:14:35.638Z,5.68
2023-03-29T03:15:35.846Z,5.71
2023-03-29T03:16:35.697Z,5.70
2023-03-29T03:17:35.690Z,5.73
2023-03-29T03:18:35.624Z,5.74
2023-03-29T03:19:35.653Z,5.75
2023-03-29T03:20:35.644Z,5.81
2023-03-29T03:21:35.668Z,5.81
2023-03-29T03:22:35.577Z,5.83
2023-03-29T03:23:35.577Z,5.83
2023-03-29T03:24:35.596Z,5.89
2023-03-29T03:25:35.632Z,5.88
2023-03-29T03:26:35.625Z,5.91
2023-03-29T03:27:35.510Z,5.89
2023-03-29T03:28:35.533Z,5.91
2023-03-29T03:29:35.515Z,5.92
2023-03-29T03:30:35.496Z,5.93
2023-03-29T03:31:35.509Z,5.92
2023-03-29T03:32:35.476Z,5.93
2023-03-29T03:33:35.455Z,5.95
2023-03-29T03:34:35.460Z,5.95
2023-03-29T03:35:35.477Z,5.95
2023-03-29T03:36:35.426Z,5.95
2023-03-29T03:37:35.412Z,5.95
2023-03-29T03:38:35.418Z,6.00
2023-03-29T03:39:35.404Z,5.98
2023-03-29T03:40:35.395Z,5.98
2023-03-29T03:41:35.390Z,5.98
2023-03-29T03:42:35.363Z,6.00
2023-03-29T03:43:35.356Z,6.01
2023-03-29T03:44:35.359Z,6.01
2023-03-29T03:45:35.361Z,6.01
2023-03-29T03:46:35.319Z,6.01
2023-03-29T03:47:35.372Z,6.01
2023-03-29T03:48:35.325Z,6.04
2023-03-29T03:49:35.309Z,6.04
2023-03-29T03:50:35.281Z,6.03
2023-03-29T03:51:35.289Z,6.01
2023-03-29T03:52:35.265Z,6.01
2023-03-29T03:53:35.255Z,6.03
2023-03-29T03:54:35.257Z,6.03
2023-03-29T03:55:35.249Z,6.04
2023-03-29T03:56:35.246Z,6.01
2023-03-29T03:57:35.242Z,6.04
2023-03-29T03:58:35.185Z,6.04
2023-03-29T03:59:35.205Z,6.04
2023-03-29T04:00:35.171Z,6.04
2023-03-29T04:01:35.196Z,6.04
2023-03-29T04:02:35.235Z,6.06
2023-03-29T04:03:35.223Z,6.07
2023-03-29T04:04:35.141Z,6.06
2023-03-29T04:05:35.119Z,6.06
2023-03-29T04:06:35.143Z,6.07
2023-03-29T04:07:35.110Z,6.09
2023-03-29T04:08:35.107Z,6.09
2023-03-29T04:09:35.088Z,6.09
2023-03-29T04:10:35.083Z,6.10
2023-03-29T04:11:35.099Z,6.10
2023-03-29T04:12:35.067Z,6.09
2023-03-29T04:13:35.061Z,6.10
2023-03-29T04:14:35.041Z,6.10
2023-03-29T04:15:35.073Z,6.11
2023-03-29T04:16:35.034Z,6.11
2023-03-29T04:17:35.204Z,6.09
2023-03-29T04:18:35.062Z,6.09
2023-03-29T04:19:35.018Z,6.10
2023-03-29T04:20:35.010Z,6.09
2023-03-29T04:21:34.991Z,6.09
2023-03-29T04:22:34.957Z,6.10
2023-03-29T04:23:34.942Z,6.11
2023-03-29T04:24:34.945Z,6.10
2023-03-29T04:25:34.936Z,6.09
2023-03-29T04:26:34.951Z,6.10
2023-03-29T04:27:34.918Z,6.09
2023-03-29T04:28:34.881Z,6.10
2023-03-29T04:29:34.903Z,6.11
2023-03-29T04:30:35.011Z,6.10
2023-03-29T04:31:34.936Z,6.10
2023-03-29T04:32:34.885Z,6.09
2023-03-29T04:33:34.877Z,6.10
2023-03-29T04:34:34.863Z,6.10
2023-03-29T04:35:34.923Z,6.09
2023-03-29T04:36:34.852Z,6.09
2023-03-29T04:37:34.830Z,6.09
2023-03-29T04:38:34.786Z,6.10
2023-03-29T04:39:34.803Z,6.10
2023-03-29T04:40:34.734Z,6.11
2023-03-29T04:41:34.745Z,6.11
2023-03-29T04:42:34.696Z,6.14
2023-03-29T04:43:34.698Z,6.13
2023-03-29T04:44:34.750Z,6.14
2023-03-29T04:45:34.684Z,6.18
2023-03-29T04:46:34.723Z,6.18
2023-03-29T04:47:34.688Z,6.18
2023-03-29T04:48:34.661Z,6.18
2023-03-29T04:49:34.658Z,6.19
2023-03-29T04:50:34.652Z,6.21
2023-03-29T04:51:34.648Z,6.22
2023-03-29T04:52:34.621Z,6.25
2023-03-29T04:53:34.592Z,6.22
2023-03-29T04:54:34.606Z,6.25
2023-03-29T04:55:34.582Z,6.26
2023-03-29T04:56:34.598Z,6.26
2023-03-29T04:57:34.591Z,6.26
2023-03-29T04:58:34.541Z,6.28
2023-03-29T04:59:34.557Z,6.29
2023-03-29T05:00:34.515Z,6.26
2023-03-29T05:01:34.589Z,6.28
2023-03-29T05:02:34.557Z,6.26
2023-03-29T05:03:34.500Z,6.29
2023-03-29T05:04:34.553Z,6.28
2023-03-29T05:05:34.480Z,6.28
2023-03-29T05:06:34.487Z,6.28
2023-03-29T05:07:34.447Z,6.29
2023-03-29T05:08:34.463Z,6.29
2023-03-29T05:09:35.574Z,6.32
2023-03-29T05:10:34.422Z,6.33
2023-03-29T05:11:34.482Z,6.36
2023-03-29T05:12:34.414Z,6.38
2023-03-29T05:13:34.522Z,6.41
2023-03-29T05:14:34.409Z,6.41
2023-03-29T05:15:34.434Z,6.40
2023-03-29T05:16:34.409Z,6.40
2023-03-29T05:17:34.405Z,6.38
2023-03-29T05:18:34.358Z,6.40
2023-03-29T05:19:34.370Z,6.41
2023-03-29T05:20:34.328Z,6.44
2023-03-29T05:21:34.342Z,6.44
2023-03-29T05:22:34.327Z,6.47
2023-03-29T05:23:34.296Z,6.47
2023-03-29T05:24:34.314Z,6.47
2023-03-29T05:25:34.277Z,6.50
2023-03-29T05:26:34.265Z,6.51
2023-03-29T05:27:34.270Z,6.51
2023-03-29T05:28:34.252Z,6.56
2023-03-29T05:29:34.257Z,6.56
2023-03-29T05:30:34.244Z,6.58
2023-03-29T05:31:34.250Z,6.61
2023-03-29T05:32:34.245Z,6.61
2023-03-29T05:33:34.193Z,6.61
2023-03-29T05:34:34.184Z,6.63
2023-03-29T05:35:34.217Z,6.65
2023-03-29T05:36:34.165Z,6.66
2023-03-29T05:37:34.139Z,6.66
2023-03-29T05:38:34.124Z,6.66
2023-03-29T05:39:35.785Z,6.68
2023-03-29T05:40:34.130Z,6.68
2023-03-29T05:41:34.145Z,6.71
2023-03-29T05:42:34.086Z,6.71
2023-03-29T05:43:34.067Z,6.73
2023-03-29T05:44:34.113Z,6.76
2023-03-29T05:45:34.195Z,6.76
2023-03-29T05:46:34.064Z,6.77
2023-03-29T05:47:34.044Z,6.77
2023-03-29T05:48:34.043Z,6.80
2023-03-29T05:49:34.072Z,6.79
2023-03-29T05:50:34.056Z,6.80
2023-03-29T05:51:34.057Z,6.81
2023-03-29T05:52:34.031Z,6.84
2023-03-29T05:53:34.039Z,6.89
2023-03-29T05:54:34.065Z,6.95
2023-03-29T05:55:34.003Z,6.98
2023-03-29T05:56:33.976Z,7.01
2023-03-29T05:57:33.940Z,7.05
2023-03-29T05:58:33.989Z,7.08
2023-03-29T05:59:33.934Z,7.13
2023-03-29T06:00:33.916Z,7.17
2023-03-29T06:01:33.902Z,7.22
2023-03-29T06:02:34.043Z,7.29
2023-03-29T06:03:34.095Z,7.32
2023-03-29T06:04:34.074Z,7.38
2023-03-29T06:05:33.863Z,7.42
2023-03-29T06:06:33.894Z,7.47
2023-03-29T06:07:33.835Z,7.49
2023-03-29T06:08:33.828Z,7.53
2023-03-29T06:09:33.812Z,7.56
2023-03-29T06:10:33.811Z,7.59
2023-03-29T06:11:33.825Z,7.62
2023-03-29T06:12:33.789Z,7.67
2023-03-29T06:13:33.801Z,7.71
2023-03-29T06:14:33.795Z,7.71
2023-03-29T06:15:33.746Z,7.75
2023-03-29T06:16:33.795Z,7.78
2023-03-29T06:17:33.848Z,7.82
2023-03-29T06:18:33.753Z,7.89
2023-03-29T06:19:33.705Z,7.94
2023-03-29T06:20:33.740Z,8.03
2023-03-29T06:21:33.705Z,8.10
2023-03-29T06:22:33.703Z,8.15
2023-03-29T06:23:33.679Z,8.20
2023-03-29T06:24:33.701Z,8.20
2023-03-29T06:25:33.648Z,8.20
2023-03-29T06:26:33.666Z,8.25
2023-03-29T06:27:33.625Z,8.26
2023-03-29T06:28:33.602Z,8.28
2023-03-29T06:29:33.586Z,8.30
2023-03-29T06:30:33.615Z,8.32
2023-03-29T06:31:33.646Z,8.36
2023-03-29T06:32:33.584Z,8.40
2023-03-29T06:33:33.561Z,8.39
2023-03-29T06:34:33.566Z,8.42
2023-03-29T06:35:33.581Z,8.44
2023-03-29T06:36:33.538Z,8.45
2023-03-29T06:37:33.522Z,8.44
2023-03-29T06:38:33.515Z,8.39
2023-03-29T06:39:33.510Z,8.40
2023-03-29T06:40:33.517Z,8.42
2023-03-29T06:41:33.796Z,8.44
2023-03-29T06:42:33.462Z,8.45
2023-03-29T06:43:33.647Z,8.45
2023-03-29T06:44:33.444Z,8.45
2023-03-29T06:45:33.454Z,8.44
2023-03-29T06:46:33.446Z,8.45
2023-03-29T06:47:33.449Z,8.42
2023-03-29T06:48:33.423Z,8.37
2023-03-29T06:49:33.403Z,8.39
2023-03-29T06:50:33.427Z,8.42
2023-03-29T06:51:33.401Z,8.42
2023-03-29T06:52:33.366Z,8.44
2023-03-29T06:53:33.352Z,8.44
2023-03-29T06:54:33.332Z,8.45
2023-03-29T06:55:33.315Z,8.42
2023-03-29T06:56:33.328Z,8.44
2023-03-29T06:57:33.338Z,8.47
2023-03-29T06:58:33.300Z,8.48
2023-03-29T06:59:33.310Z,8.48
2023-03-29T07:00:33.264Z,8.50
2023-03-29T07:01:33.299Z,8.48
2023-03-29T07:02:33.267Z,8.53
2023-03-29T07:03:33.336Z,8.48
2023-03-29T07:04:33.327Z,8.50
2023-03-29T07:05:33.226Z,8.51
2023-03-29T07:06:33.231Z,8.51
2023-03-29T07:07:33.209Z,8.54
2023-03-29T07:08:33.210Z,8.57
2023-03-29T07:09:33.162Z,8.62
2023-03-29T07:10:33.167Z,8.63
2023-03-29T07:11:33.497Z,8.63
2023-03-29T07:12:33.156Z,8.68
2023-03-29T07:13:33.217Z,8.79
2023-03-29T07:14:33.132Z,8.88
2023-03-29T07:15:33.109Z,8.96
2023-03-29T07:16:33.168Z,9.06
2023-03-29T07:17:33.118Z,9.15
2023-03-29T07:18:33.076Z,9.21
2023-03-29T07:19:33.063Z,9.35
2023-03-29T07:20:33.093Z,9.46
2023-03-29T07:21:33.680Z,9.52
2023-03-29T07:22:33.042Z,9.57
2023-03-29T07:23:33.037Z,9.64
2023-03-29T07:24:33.026Z,9.71
2023-03-29T07:25:33.005Z,9.79
2023-03-29T07:26:33.018Z,9.70
2023-03-29T07:27:32.996Z,9.67
2023-03-29T07:28:33.049Z,9.70
2023-03-29T07:29:32.996Z,9.75
2023-03-29T07:30:32.971Z,9.79
2023-03-29T07:31:32.982Z,9.83
2023-03-29T07:32:32.982Z,9.93
2023-03-29T07:33:33.106Z,9.89
2023-03-29T07:34:32.922Z,9.85
2023-03-29T07:35:33.017Z,9.71
2023-03-29T07:36:32.927Z,9.64
2023-03-29T07:37:32.884Z,9.64
2023-03-29T07:38:32.885Z,9.63
2023-03-29T07:39:32.848Z,9.56
2023-03-29T07:40:32.899Z,9.53
2023-03-29T07:41:32.850Z,9.52
2023-03-29T07:42:32.845Z,9.48
2023-03-29T07:43:32.807Z,9.46
2023-03-29T07:44:32.827Z,9.49
2023-03-29T07:45:32.901Z,9.52
2023-03-29T07:46:32.801Z,9.53
2023-03-29T07:47:32.795Z,9.57
2023-03-29T07:48:32.806Z,9.58
2023-03-29T07:49:32.768Z,9.63
2023-03-29T07:50:32.777Z,9.64
2023-03-29T07:51:32.781Z,9.64
2023-03-29T07:52:32.744Z,9.64
2023-03-29T07:53:32.713Z,9.66
2023-03-29T07:54:32.721Z,9.67
2023-03-29T07:55:32.703Z,9.60
2023-03-29T07:56:32.721Z,9.56
2023-03-29T07:57:32.683Z,9.57
2023-03-29T07:58:32.683Z,9.56
2023-03-29T07:59:32.659Z,9.50
2023-03-29T08:00:32.733Z,9.53
2023-03-29T08:01:32.688Z,9.57
2023-03-29T08:02:32.653Z,9.61
2023-03-29T08:03:32.662Z,9.66
2023-03-29T08:04:32.731Z,9.67
2023-03-29T08:05:40.910Z,9.70
2023-03-29T08:06:32.590Z,9.70
2023-03-29T08:07:32.558Z,9.75
2023-03-29T08:08:32.595Z,9.76
2023-03-29T08:09:32.563Z,9.82
2023-03-29T08:10:32.566Z,9.91
2023-03-29T08:11:32.545Z,9.96
2023-03-29T08:12:32.553Z,10.01
2023-03-29T08:13:32.548Z,10.03
2023-03-29T08:14:32.504Z,10.01
2023-03-29T08:15:32.488Z,10.00
2023-03-29T08:16:32.536Z,10.04
2023-03-29T08:17:32.515Z,10.06
2023-03-29T08:18:34.673Z,10.04
2023-03-29T08:19:32.510Z,10.00
2023-03-29T08:20:32.452Z,10.00
2023-03-29T08:21:32.453Z,9.99
2023-03-29T08:22:32.442Z,9.93
2023-03-29T08:23:32.475Z,9.96
2023-03-29T08:24:32.394Z,9.97
2023-03-29T08:25:32.396Z,9.99
2023-03-29T08:26:32.403Z,10.00
2023-03-29T08:27:32.407Z,10.01
2023-03-29T08:28:32.360Z,10.09
2023-03-29T08:29:32.382Z,10.12
2023-03-29T08:30:32.344Z,10.14
2023-03-29T08:31:32.384Z,10.19
2023-03-29T08:32:32.336Z,10.24
2023-03-29T08:33:32.352Z,10.18
2023-03-29T08:34:32.320Z,10.17
2023-03-29T08:35:32.364Z,10.19
2023-03-29T08:36:32.283Z,10.24
2023-03-29T08:37:32.257Z,10.22
2023-03-29T08:38:32.273Z,10.25
2023-03-29T08:39:32.246Z,10.32
2023-03-29T08:40:32.252Z,10.34
2023-03-29T08:41:32.251Z,10.39
2023-03-29T08:42:32.213Z,10.34
2023-03-29T08:43:32.204Z,10.28
2023-03-29T08:44:32.195Z,10.32
2023-03-29T08:45:32.187Z,10.37
2023-03-29T08:46:35.363Z,10.43
2023-03-29T08:47:32.198Z,10.52
2023-03-29T08:48:32.150Z,10.58
2023-03-29T08:49:32.136Z,10.46
2023-03-29T08:50:32.126Z,10.44
2023-03-29T08:51:32.146Z,10.47
2023-03-29T08:52:32.139Z,10.52
2023-03-29T08:53:32.097Z,10.58
2023-03-29T08:54:32.118Z,10.62
2023-03-29T08:55:32.068Z,10.60
2023-03-29T08:56:34.146Z,10.59
2023-03-29T08:57:32.095Z,10.59
2023-03-29T08:58:32.042Z,10.60
2023-03-29T08:59:32.097Z,10.65
2023-03-29T09:00:32.046Z,10.70
2023-03-29T09:01:32.134Z,10.74
2023-03-29T09:02:32.356Z,10.78
2023-03-29T09:03:32.117Z,10.86
2023-03-29T09:04:31.997Z,10.86
2023-03-29T09:05:31.994Z,10.91
2023-03-29T09:06:31.980Z,10.92
2023-03-29T09:07:31.966Z,10.98
2023-03-29T09:08:31.984Z,11.03
2023-03-29T09:09:31.925Z,11.07
2023-03-29T09:10:31.929Z,11.11
2023-03-29T09:11:31.911Z,11.09
2023-03-29T09:12:31.913Z,11.17
2023-03-29T09:13:31.963Z,11.25
2023-03-29T09:14:31.899Z,11.32
2023-03-29T09:15:31.881Z,11.38
2023-03-29T09:16:31.923Z,11.35
2023-03-29T09:17:31.894Z,11.35
2023-03-29T09:18:31.860Z,11.36
2023-03-29T09:19:31.843Z,11.36
2023-03-29T09:20:31.881Z,11.43
2023-03-29T09:21:31.817Z,11.46
2023-03-29T09:22:31.808Z,11.46
2023-03-29T09:23:31.781Z,11.54
2023-03-29T09:24:31.792Z,11.64
2023-03-29T09:25:36.253Z,11.75
2023-03-29T09:26:31.804Z,11.93
2023-03-29T09:27:31.748Z,11.94
2023-03-29T09:28:31.770Z,11.94
2023-03-29T09:29:31.748Z,12.05
2023-03-29T09:30:31.706Z,12.15
2023-03-29T09:31:31.791Z,12.26
2023-03-29T09:32:31.861Z,12.34
2023-03-29T09:33:31.708Z,12.41
2023-03-29T09:34:31.708Z,12.41
2023-03-29T09:35:31.701Z,12.52
2023-03-29T09:36:31.650Z,12.42
2023-03-29T09:37:31.665Z,12.33
2023-03-29T09:38:31.635Z,12.19
2023-03-29T09:39:31.643Z,12.13
2023-03-29T09:40:31.642Z,12.04
2023-03-29T09:41:31.610Z,11.99
2023-03-29T09:42:31.616Z,11.99
2023-03-29T09:43:31.678Z,11.97
2023-03-29T09:44:31.796Z,12.06
2023-03-29T09:45:31.639Z,12.02
2023-03-29T09:46:31.651Z,12.09
2023-03-29T09:47:31.584Z,12.09
2023-03-29T09:48:31.541Z,12.15
2023-03-29T09:49:31.570Z,12.15
2023-03-29T09:50:32.371Z,12.12
2023-03-29T09:51:31.500Z,12.20
2023-03-29T09:52:31.551Z,12.31
2023-03-29T09:53:31.510Z,12.46
2023-03-29T09:54:31.513Z,12.60
2023-03-29T09:55:31.526Z,12.75
2023-03-29T09:56:31.450Z,12.87
2023-03-29T09:57:31.498Z,13.04
2023-03-29T09:58:31.461Z,13.07
2023-03-29T09:59:31.465Z,13.14
2023-03-29T10:00:31.432Z,13.18
2023-03-29T10:01:31.416Z,13.11
2023-03-29T10:02:31.531Z,13.09
2023-03-29T10:03:31.383Z,13.07
2023-03-29T10:04:31.404Z,13.17
2023-03-29T10:05:31.363Z,13.18
2023-03-29T10:06:31.363Z,13.15
2023-03-29T10:07:31.373Z,13.12
2023-03-29T10:08:31.376Z,13.32
2023-03-29T10:09:31.320Z,13.43
2023-03-29T10:10:31.309Z,13.55
2023-03-29T10:11:31.333Z,13.58
2023-03-29T10:12:31.679Z,13.59
2023-03-29T10:13:31.279Z,13.47
2023-03-29T10:14:31.259Z,13.43
2023-03-29T10:15:31.259Z,13.30
2023-03-29T10:16:31.277Z,13.25
2023-03-29T10:17:31.343Z,13.24
2023-03-29T10:18:31.234Z,13.29
2023-03-29T10:19:31.238Z,13.25
2023-03-29T10:20:31.226Z,13.38
2023-03-29T10:21:31.203Z,13.61
2023-03-29T10:22:31.209Z,13.79
2023-03-29T10:23:31.205Z,13.88
2023-03-29T10:24:31.198Z,13.71
2023-03-29T10:25:31.158Z,13.63
2023-03-29T10:26:31.161Z,13.67
2023-03-29T10:27:31.148Z,13.73
2023-03-29T10:28:31.118Z,13.77
2023-03-29T10:29:31.131Z,13.74
2023-03-29T10:30:31.100Z,13.73
2023-03-29T10:31:31.183Z,13.83
2023-03-29T10:32:31.118Z,13.79
2023-03-29T10:33:31.077Z,13.80
2023-03-29T10:34:31.054Z,13.73
2023-03-29T10:35:31.081Z,13.77
2023-03-29T10:36:31.031Z,13.79
2023-03-29T10:37:31.042Z,13.77
2023-03-29T10:38:31.016Z,13.94
2023-03-29T10:39:31.013Z,14.04
2023-03-29T10:40:31.014Z,14.14
2023-03-29T10:41:30.982Z,14.07
2023-03-29T10:42:31.013Z,14.04
2023-03-29T10:43:30.986Z,14.13
2023-03-29T10:44:32.899Z,14.09
2023-03-29T10:45:30.965Z,14.13
2023-03-29T10:46:30.972Z,14.14
2023-03-29T10:47:31.005Z,14.17
2023-03-29T10:48:31.082Z,14.25
2023-03-29T10:49:30.968Z,14.31
2023-03-29T10:50:30.913Z,14.43
2023-03-29T10:51:30.907Z,14.54
2023-03-29T10:52:30.877Z,14.56
2023-03-29T10:53:30.899Z,14.54
2023-03-29T10:54:30.850Z,14.54
2023-03-29T10:55:30.877Z,14.54
2023-03-29T10:56:30.848Z,14.64
2023-03-29T10:57:30.909Z,14.67
2023-03-29T10:58:30.825Z,14.75
2023-03-29T10:59:30.798Z,14.84
2023-03-29T11:00:30.873Z,14.94
2023-03-29T11:01:30.861Z,14.90
2023-03-29T11:02:30.909Z,14.84
2023-03-29T11:03:30.858Z,14.78
2023-03-29T11:04:30.804Z,14.86
2023-03-29T11:05:30.756Z,14.95
2023-03-29T11:06:30.713Z,14.98
2023-03-29T11:07:30.727Z,14.95
2023-03-29T11:08:31.916Z,15.08
2023-03-29T11:09:30.711Z,15.27
2023-03-29T11:10:30.754Z,15.48
2023-03-29T11:11:30.681Z,15.56
2023-03-29T11:12:30.681Z,15.74
2023-03-29T11:13:30.658Z,15.68
2023-03-29T11:14:30.656Z,15.85
2023-03-29T11:15:30.697Z,15.88
2023-03-29T11:16:30.665Z,15.82
2023-03-29T11:17:30.647Z,15.84
2023-03-29T11:18:30.661Z,15.97
2023-03-29T11:19:30.612Z,16.09
2023-03-29T11:20:30.582Z,16.27
2023-03-29T11:21:30.598Z,16.27
2023-03-29T11:22:30.573Z,16.38
2023-03-29T11:23:30.563Z,16.33
2023-03-29T11:24:30.576Z,15.93
2023-03-29T11:25:30.543Z,15.97
2023-03-29T11:26:30.561Z,16.01
2023-03-29T11:27:30.521Z,16.00
2023-03-29T11:28:30.497Z,15.99
2023-03-29T11:29:30.506Z,15.82
2023-03-29T11:30:30.494Z,15.66
2023-03-29T11:31:30.507Z,15.66
2023-03-29T11:32:30.464Z,15.70
2023-03-29T11:33:30.451Z,15.75
2023-03-29T11:34:30.439Z,15.74
2023-03-29T11:35:30.480Z,15.78
2023-03-29T11:36:30.413Z,15.85
2023-03-29T11:37:30.456Z,15.86
2023-03-29T11:38:30.434Z,15.81
2023-03-29T11:39:30.393Z,15.67
2023-03-29T11:40:30.388Z,15.74
2023-03-29T11:41:30.420Z,15.78
2023-03-29T11:42:30.369Z,15.84
2023-03-29T11:43:30.369Z,15.84
2023-03-29T11:44:30.339Z,15.96
2023-03-29T11:45:30.324Z,16.12
2023-03-29T11:46:30.345Z,16.15
2023-03-29T11:47:30.336Z,16.07
2023-03-29T11:48:30.303Z,16.00
2023-03-29T11:49:30.324Z,15.99
2023-03-29T11:50:30.256Z,15.96
2023-03-29T11:51:30.293Z,15.86
2023-03-29T11:52:30.238Z,15.84
2023-03-29T11:53:30.341Z,15.84
2023-03-29T11:54:30.242Z,15.70
2023-03-29T11:55:30.239Z,15.67
2023-03-29T11:56:30.211Z,15.68
2023-03-29T11:57:30.328Z,15.67
2023-03-29T11:58:30.194Z,15.59
2023-03-29T11:59:30.198Z,15.59
2023-03-29T12:00:30.179Z,15.56
2023-03-29T12:01:30.147Z,15.61
2023-03-29T12:02:30.203Z,15.67
2023-03-29T12:03:30.273Z,15.66
2023-03-29T12:04:30.223Z,15.61
2023-03-29T12:05:30.116Z,15.49
2023-03-29T12:06:30.122Z,15.36
2023-03-29T12:07:30.151Z,15.30
2023-03-29T12:08:30.190Z,15.27
2023-03-29T12:09:30.089Z,15.27
2023-03-29T12:10:30.125Z,15.30
2023-03-29T12:11:30.126Z,15.43
2023-03-29T12:12:30.024Z,15.51
2023-03-29T12:13:30.057Z,15.61
2023-03-29T12:14:30.104Z,15.43
2023-03-29T12:15:30.018Z,15.56
2023-03-29T12:16:30.059Z,15.57
2023-03-29T12:17:30.013Z,15.52
2023-03-29T12:18:30.211Z,15.52
2023-03-29T12:19:29.961Z,15.45
2023-03-29T12:20:29.965Z,15.38
2023-03-29T12:21:29.995Z,15.35
2023-03-29T12:22:29.944Z,15.33
2023-03-29T12:23:29.939Z,15.27
2023-03-29T12:24:29.926Z,15.23
2023-03-29T12:25:29.898Z,15.20
2023-03-29T12:26:29.887Z,15.11
2023-03-29T12:27:29.914Z,15.03
2023-03-29T12:28:29.911Z,14.99
2023-03-29T12:29:29.877Z,14.94
2023-03-29T12:30:29.850Z,14.87
2023-03-29T12:31:29.896Z,14.84
2023-03-29T12:32:30.164Z,14.86
2023-03-29T12:33:29.850Z,14.91
2023-03-29T12:34:29.913Z,14.91
2023-03-29T12:35:29.829Z,14.98
2023-03-29T12:36:29.807Z,14.88
2023-03-29T12:37:29.786Z,14.64
2023-03-29T12:38:30.868Z,14.56
2023-03-29T12:39:29.790Z,14.46
2023-03-29T12:40:29.779Z,14.43
2023-03-29T12:41:29.756Z,14.49
2023-03-29T12:42:29.766Z,14.49
2023-03-29T12:43:29.769Z,14.54
2023-03-29T12:44:29.711Z,14.64
2023-03-29T12:45:29.745Z,14.68
2023-03-29T12:46:29.760Z,14.64
2023-03-29T12:47:29.710Z,14.56
2023-03-29T12:48:29.686Z,14.54
2023-03-29T12:49:29.697Z,14.53
2023-03-29T12:50:29.649Z,14.46
2023-03-29T12:51:29.663Z,14.42
2023-03-29T12:52:29.622Z,14.31
2023-03-29T12:53:29.629Z,14.25
2023-03-29T12:54:29.621Z,14.31
2023-03-29T12:55:29.672Z,14.27
2023-03-29T12:56:29.589Z,14.21
2023-03-29T12:57:29.581Z,14.19
2023-03-29T12:58:29.609Z,14.25
2023-03-29T12:59:29.569Z,14.25
2023-03-29T13:00:29.597Z,14.25
2023-03-29T13:01:29.698Z,14.17
2023-03-29T13:02:29.600Z,14.09
2023-03-29T13:03:29.610Z,13.99
2023-03-29T13:04:29.531Z,14.01
2023-03-29T13:05:29.607Z,14.01
2023-03-29T13:06:29.493Z,13.96
2023-03-29T13:07:29.530Z,13.96
2023-03-29T13:08:29.554Z,14.01